Time;durP1;ratioP1;P1;durP2;ratioP2;P2;SDS_P1;SDS_P2;PMS_P1;PMS_P2;Temp;Humidity;BMP_temperature;BMP_pressure;BME280_temperature;BME280_humidity;BME280_pressure;Samples;Min_cycle;Max_cycle;Signal;HPM_P1;HPM_P2
2022/04/15 00:01:58;;;;;;;0.90;0.60;;;19.60;48.20;;;;;;6169571;28;20122;-67
2022/04/15 00:04:59;;;;;;;0.85;0.70;;;19.60;48.10;;;;;;6168965;28;20508;-69
2022/04/15 00:07:59;;;;;;;0.75;0.40;;;19.60;48.20;;;;;;6172573;28;20026;-68
2022/04/15 00:11:00;;;;;;;0.60;0.30;;;19.60;48.20;;;;;;6172504;28;20041;-69
2022/04/15 00:14:01;;;;;;;0.30;0.30;;;19.60;48.20;;;;;;6174146;28;20027;-68
2022/04/15 00:17:02;;;;;;;0.45;0.35;;;19.60;48.30;;;;;;6173600;28;20029;-68
2022/04/15 00:20:04;;;;;;;0.68;0.47;;;19.60;48.20;;;;;;6173556;28;20123;-67
2022/04/15 00:23:05;;;;;;;0.40;0.40;;;19.60;48.20;;;;;;6173739;28;20177;-68
2022/04/15 00:26:05;;;;;;;0.50;0.40;;;19.60;48.20;;;;;;6173664;28;20022;-67
2022/04/15 00:29:06;;;;;;;0.55;0.50;;;19.60;48.20;;;;;;6172517;28;20027;-67
2022/04/15 00:32:07;;;;;;;0.82;0.50;;;19.60;48.20;;;;;;6149284;29;20058;-67
2022/04/15 00:35:08;;;;;;;0.88;0.68;;;19.60;48.20;;;;;;6149465;29;20026;-68
2022/04/15 00:38:10;;;;;;;0.50;0.50;;;19.60;48.20;;;;;;6149455;29;20051;-68
2022/04/15 00:41:16;;;;;;;1.38;0.55;;;19.60;48.20;;;;;;6149893;29;20086;-68
2022/04/15 00:44:16;;;;;;;0.40;0.40;;;19.60;48.20;;;;;;6149236;29;20058;-69
2022/04/15 00:47:53;;;;;;;0.50;0.38;;;19.60;48.20;;;;;;6148929;28;20033;-67
2022/04/15 00:50:54;;;;;;;0.43;0.43;;;19.60;48.20;;;;;;6148976;28;20101;-67
2022/04/15 00:53:57;;;;;;;0.47;0.47;;;19.60;48.20;;;;;;6159768;28;20023;-68
2022/04/15 00:57:01;;;;;;;0.47;0.40;;;19.60;48.20;;;;;;6173090;28;20049;-67
2022/04/15 01:00:04;;;;;;;0.57;0.50;;;19.60;48.20;;;;;;6172679;28;20497;-67
2022/04/15 01:03:06;;;;;;;0.40;0.40;;;19.60;48.20;;;;;;6172808;28;20057;-68
2022/04/15 01:06:07;;;;;;;0.45;0.45;;;19.60;48.20;;;;;;6173042;28;20027;-67
2022/04/15 01:09:12;;;;;;;0.60;0.45;;;19.60;48.30;;;;;;6172884;28;20111;-68
2022/04/15 01:12:16;;;;;;;0.40;0.40;;;19.60;48.20;;;;;;6172567;28;20220;-67
2022/04/15 01:15:16;;;;;;;0.30;0.30;;;19.60;48.20;;;;;;6172639;28;20117;-69
2022/04/15 01:18:17;;;;;;;0.40;0.40;;;19.60;48.20;;;;;;6172106;28;20035;-68
2022/04/15 01:21:18;;;;;;;0.60;0.50;;;19.60;48.30;;;;;;6172268;28;20027;-68
2022/04/15 01:24:19;;;;;;;0.50;0.50;;;19.60;48.20;;;;;;6172519;28;20034;-67
2022/04/15 01:27:26;;;;;;;0.30;0.30;;;19.60;48.20;;;;;;6172029;28;20038;-68
2022/04/15 01:30:27;;;;;;;0.50;0.50;;;19.60;48.30;;;;;;6159793;28;20476;-68
2022/04/15 01:33:28;;;;;;;0.47;0.40;;;19.60;48.20;;;;;;6148503;29;20023;-67
2022/04/15 01:36:28;;;;;;;0.60;0.40;;;19.60;48.30;;;;;;6147907;29;20150;-68
2022/04/15 01:39:31;;;;;;;0.50;0.50;;;19.60;48.20;;;;;;6148178;29;20066;-67
2022/04/15 01:42:32;;;;;;;0.60;0.40;;;19.60;48.20;;;;;;6148329;29;20039;-69
2022/04/15 01:45:33;;;;;;;0.75;0.43;;;19.60;48.20;;;;;;6125539;29;20092;-68
2022/04/15 01:48:33;;;;;;;0.70;0.50;;;19.60;48.30;;;;;;6124038;29;20104;-68
2022/04/15 01:51:35;;;;;;;0.63;0.57;;;19.60;49.00;;;;;;6123781;29;20028;-67
2022/04/15 01:54:36;;;;;;;0.47;0.40;;;19.60;48.30;;;;;;6156412;28;20086;-67
2022/04/15 01:57:36;;;;;;;0.40;0.40;;;19.60;48.30;;;;;;6171189;28;20367;-67
2022/04/15 02:00:37;;;;;;;0.65;0.50;;;19.60;48.30;;;;;;6171485;28;20074;-68
2022/04/15 02:03:37;;;;;;;0.40;0.30;;;19.60;48.30;;;;;;6171014;28;20039;-67
2022/04/15 02:06:38;;;;;;;0.50;0.50;;;19.60;48.30;;;;;;6171577;28;20026;-68
2022/04/15 02:09:38;;;;;;;0.60;0.50;;;19.60;48.30;;;;;;6171320;28;20453;-68
2022/04/15 02:12:39;;;;;;;0.80;0.50;;;19.60;48.30;;;;;;6169761;28;20033;-67
2022/04/15 02:15:39;;;;;;;0.65;0.55;;;19.60;48.30;;;;;;6171026;28;20428;-67
2022/04/15 02:18:40;;;;;;;0.95;0.60;;;19.60;48.30;;;;;;6170912;28;20408;-67
2022/04/15 02:21:40;;;;;;;0.30;0.30;;;19.60;48.40;;;;;;6171006;28;20102;-67
2022/04/15 02:24:41;;;;;;;0.93;0.40;;;19.60;48.30;;;;;;6170830;28;20031;-68
2022/04/15 02:27:44;;;;;;;0.50;0.50;;;19.60;48.30;;;;;;6170633;28;20043;-67
2022/04/15 02:30:47;;;;;;;0.38;0.30;;;19.60;48.30;;;;;;6156017;28;20470;-68
2022/04/15 02:33:48;;;;;;;1.13;0.40;;;19.60;48.30;;;;;;6146447;29;20063;-67
2022/04/15 02:36:48;;;;;;;0.63;0.35;;;19.60;48.30;;;;;;6146792;29;20053;-67
2022/04/15 02:39:49;;;;;;;0.45;0.40;;;19.60;48.30;;;;;;6158764;28;20059;-67
2022/04/15 02:42:50;;;;;;;0.63;0.50;;;19.60;48.40;;;;;;6169575;28;20367;-68
2022/04/15 02:45:51;;;;;;;0.50;0.40;;;19.60;48.30;;;;;;6125004;29;20405;-68
2022/04/15 02:48:51;;;;;;;0.85;0.50;;;19.60;48.30;;;;;;6147109;28;20035;-66
2022/04/15 02:51:53;;;;;;;0.73;0.60;;;19.60;48.30;;;;;;6146330;28;20170;-67
2022/04/15 02:54:54;;;;;;;0.55;0.50;;;19.60;48.30;;;;;;6165545;28;20074;-67
2022/04/15 02:57:54;;;;;;;0.60;0.50;;;19.60;48.30;;;;;;6170048;28;20478;-68
2022/04/15 03:00:54;;;;;;;0.30;0.30;;;19.60;48.30;;;;;;6169980;28;20051;-67
2022/04/15 03:03:55;;;;;;;0.63;0.45;;;19.60;48.30;;;;;;6170148;28;20163;-68
2022/04/15 03:06:55;;;;;;;0.90;0.40;;;19.60;48.30;;;;;;6170137;28;20485;-69
2022/04/15 03:09:56;;;;;;;0.60;0.50;;;19.60;48.30;;;;;;6170273;28;20236;-68
2022/04/15 03:12:57;;;;;;;0.55;0.50;;;19.60;48.30;;;;;;6170002;28;20061;-68
2022/04/15 03:15:57;;;;;;;1.15;0.40;;;19.60;48.30;;;;;;6169694;28;20041;-67
2022/04/15 03:18:58;;;;;;;0.70;0.50;;;19.60;48.30;;;;;;6169551;28;20043;-68
2022/04/15 03:21:58;;;;;;;0.60;0.50;;;19.60;48.30;;;;;;6168574;28;20486;-67
2022/04/15 03:24:59;;;;;;;0.55;0.40;;;19.60;48.40;;;;;;6169720;28;20027;-67
2022/04/15 03:28:00;;;;;;;0.40;0.40;;;19.60;48.30;;;;;;6169216;28;20027;-67
2022/04/15 03:31:01;;;;;;;0.43;0.40;;;19.60;48.30;;;;;;6152240;28;20109;-67
2022/04/15 03:34:01;;;;;;;0.73;0.30;;;19.60;48.30;;;;;;6145621;29;20027;-67
2022/04/15 03:37:03;;;;;;;0.60;0.50;;;19.60;48.30;;;;;;6145769;29;20386;-67
2022/04/15 03:40:05;;;;;;;0.30;0.30;;;19.60;48.30;;;;;;6146185;28;20031;-67
2022/04/15 03:43:05;;;;;;;0.43;0.43;;;19.60;48.30;;;;;;6147636;29;20040;-67
2022/04/15 03:46:06;;;;;;;0.50;0.45;;;19.60;48.30;;;;;;6126896;29;20024;-68
2022/04/15 03:49:07;;;;;;;0.43;0.40;;;19.60;48.30;;;;;;6127049;29;20028;-68
2022/04/15 03:52:08;;;;;;;0.40;0.40;;;19.60;48.30;;;;;;6126564;29;20028;-68
2022/04/15 03:55:10;;;;;;;0.40;0.40;;;19.60;48.30;;;;;;6167360;28;20042;-69
2022/04/15 03:58:16;;;;;;;0.65;0.40;;;19.60;48.30;;;;;;6174404;28;20571;-69
2022/04/15 04:01:16;;;;;;;0.55;0.40;;;19.60;48.30;;;;;;6174156;28;20385;-69
2022/04/15 04:04:17;;;;;;;0.65;0.50;;;19.60;48.30;;;;;;6174919;28;20343;-68
2022/04/15 04:07:17;;;;;;;0.63;0.45;;;19.60;48.30;;;;;;6174003;28;20126;-67
2022/04/15 04:10:18;;;;;;;0.47;0.40;;;19.60;48.30;;;;;;6174086;28;20110;-67
2022/04/15 04:13:18;;;;;;;0.70;0.60;;;19.60;48.30;;;;;;6173443;28;20042;-67
2022/04/15 04:16:19;;;;;;;0.20;0.20;;;19.60;48.30;;;;;;6173346;28;20022;-67
2022/04/15 04:19:19;;;;;;;0.47;0.38;;;19.60;48.30;;;;;;6173789;28;20031;-67
2022/04/15 04:22:20;;;;;;;0.50;0.50;;;19.60;49.00;;;;;;6173792;28;20046;-67
2022/04/15 04:25:21;;;;;;;0.57;0.47;;;19.60;48.20;;;;;;6173532;28;20133;-67
2022/04/15 04:28:21;;;;;;;0.50;0.47;;;19.60;48.20;;;;;;6174895;28;20031;-68
2022/04/15 04:31:22;;;;;;;0.43;0.40;;;19.60;48.20;;;;;;6153931;28;20640;-69
2022/04/15 04:34:22;;;;;;;0.22;0.22;;;19.60;48.20;;;;;;6149409;29;20031;-67
2022/04/15 04:37:23;;;;;;;0.47;0.40;;;19.60;48.20;;;;;;6149628;29;20047;-68
2022/04/15 04:40:23;;;;;;;0.40;0.40;;;19.60;48.20;;;;;;6149731;29;20059;-69
2022/04/15 04:43:24;;;;;;;0.30;0.30;;;19.60;48.10;;;;;;6144047;29;20055;-67
2022/04/15 04:46:24;;;;;;;0.28;0.28;;;19.60;48.10;;;;;;6124929;29;20521;-67
2022/04/15 04:49:25;;;;;;;0.60;0.40;;;19.60;48.10;;;;;;6125551;29;20035;-67
2022/04/15 04:52:26;;;;;;;0.45;0.45;;;19.60;48.10;;;;;;6123063;28;20370;-67
2022/04/15 04:55:27;;;;;;;0.50;0.40;;;19.60;48.10;;;;;;6170717;28;20473;-68
2022/04/15 04:58:27;;;;;;;0.50;0.40;;;19.60;48.10;;;;;;6172535;28;20042;-67
2022/04/15 05:01:28;;;;;;;0.40;0.40;;;19.60;48.10;;;;;;6161600;28;20032;-67
2022/04/15 05:04:28;;;;;;;0.57;0.38;;;19.60;48.10;;;;;;6125263;29;20024;-67
2022/04/15 05:07:29;;;;;;;0.50;0.50;;;19.60;48.10;;;;;;6124657;29;20161;-67
2022/04/15 05:10:30;;;;;;;0.45;0.40;;;19.60;48.10;;;;;;6125097;29;20444;-69
2022/04/15 05:13:30;;;;;;;0.40;0.40;;;19.60;48.10;;;;;;6124409;29;20494;-68
2022/04/15 05:16:30;;;;;;;1.17;0.45;;;19.60;48.10;;;;;;6124701;29;20059;-67
2022/04/15 05:19:31;;;;;;;0.43;0.35;;;19.60;48.00;;;;;;6125000;29;20032;-68
2022/04/15 05:22:32;;;;;;;0.70;0.50;;;19.60;48.00;;;;;;6124815;29;20082;-67
2022/04/15 05:25:32;;;;;;;0.40;0.38;;;19.60;48.00;;;;;;6124043;29;20036;-67
2022/04/15 05:28:35;;;;;;;0.50;0.47;;;19.60;48.10;;;;;;6123229;29;20155;-66
2022/04/15 05:31:36;;;;;;;0.20;0.20;;;19.60;48.00;;;;;;6145533;28;20028;-68
2022/04/15 05:34:37;;;;;;;0.32;0.30;;;19.60;48.00;;;;;;6148352;29;20324;-68
2022/04/15 05:37:37;;;;;;;0.40;0.40;;;19.60;48.00;;;;;;6148167;29;20051;-68
2022/04/15 05:40:38;;;;;;;0.40;0.40;;;19.60;48.00;;;;;;6147494;29;20394;-67
2022/04/15 05:43:39;;;;;;;0.38;0.38;;;19.60;48.10;;;;;;6141215;29;20098;-68
2022/04/15 05:46:42;;;;;;;0.52;0.40;;;19.60;48.00;;;;;;6124063;29;20115;-67
2022/04/15 05:49:42;;;;;;;0.38;0.25;;;19.60;48.00;;;;;;6124449;29;20119;-67
2022/04/15 05:52:43;;;;;;;0.40;0.40;;;19.60;48.00;;;;;;6126287;28;20032;-68
2022/04/15 05:55:43;;;;;;;0.70;0.57;;;19.60;48.00;;;;;;6171559;28;20058;-68
2022/04/15 05:58:44;;;;;;;0.40;0.40;;;19.60;48.00;;;;;;6171461;28;20054;-69
2022/04/15 06:01:45;;;;;;;0.30;0.30;;;19.60;48.00;;;;;;6144277;28;20051;-68
2022/04/15 06:04:45;;;;;;;0.40;0.40;;;19.70;48.10;;;;;;6148517;28;20401;-67
2022/04/15 06:07:46;;;;;;;1.25;0.50;;;19.60;48.00;;;;;;6149342;28;20019;-68
2022/04/15 06:10:46;;;;;;;0.28;0.28;;;19.60;48.00;;;;;;6149666;28;20023;-67
2022/04/15 06:13:47;;;;;;;0.30;0.30;;;19.70;48.10;;;;;;6149546;28;20042;-68
2022/04/15 06:16:48;;;;;;;0.50;0.40;;;19.70;48.10;;;;;;6149160;28;20019;-69
2022/04/15 06:19:49;;;;;;;0.52;0.40;;;19.70;48.10;;;;;;6149075;28;20031;-69
2022/04/15 06:22:50;;;;;;;0.47;0.45;;;19.70;48.00;;;;;;6149073;28;20135;-67
2022/04/15 06:25:50;;;;;;;0.73;0.30;;;19.70;48.10;;;;;;6148881;28;20035;-68
2022/04/15 06:28:51;;;;;;;0.40;0.40;;;19.60;48.00;;;;;;6149325;28;20027;-68
2022/04/15 06:31:52;;;;;;;0.32;0.30;;;19.70;48.00;;;;;;6148995;28;20466;-68
2022/04/15 06:34:53;;;;;;;0.38;0.38;;;19.70;48.10;;;;;;6148388;29;20100;-66
2022/04/15 06:37:53;;;;;;;0.20;0.20;;;19.70;48.10;;;;;;6149100;29;20027;-67
2022/04/15 06:40:54;;;;;;;0.30;0.30;;;19.70;48.10;;;;;;6148725;29;20073;-67
2022/04/15 06:43:54;;;;;;;0.50;0.47;;;19.70;48.10;;;;;;6139693;29;20063;-68
2022/04/15 06:46:54;;;;;;;0.40;0.40;;;19.70;48.10;;;;;;6124279;29;20395;-66
2022/04/15 06:49:55;;;;;;;0.20;0.20;;;19.70;48.10;;;;;;6124853;29;20118;-68
2022/04/15 06:52:55;;;;;;;0.38;0.38;;;19.70;48.10;;;;;;6130496;28;20031;-67
2022/04/15 06:55:56;;;;;;;0.50;0.50;;;19.70;48.10;;;;;;6171658;28;20031;-68
2022/04/15 06:58:57;;;;;;;0.55;0.43;;;19.60;48.00;;;;;;6172218;28;20054;-67
2022/04/15 07:01:59;;;;;;;0.70;0.40;;;19.70;48.10;;;;;;6170504;28;20038;-67
2022/04/15 07:04:59;;;;;;;0.60;0.52;;;19.70;48.00;;;;;;6172023;28;20035;-69
2022/04/15 07:07:59;;;;;;;0.30;0.30;;;19.70;48.10;;;;;;6172104;28;20042;-67
2022/04/15 07:11:02;;;;;;;0.60;0.52;;;19.70;48.00;;;;;;6172005;28;20048;-67
2022/04/15 07:14:05;;;;;;;0.35;0.30;;;19.70;48.10;;;;;;6172240;28;20034;-67
2022/04/15 07:17:05;;;;;;;0.50;0.45;;;19.70;48.00;;;;;;6171379;28;20121;-68
2022/04/15 07:20:06;;;;;;;0.28;0.28;;;19.70;48.10;;;;;;6172340;28;20039;-69
2022/04/15 07:23:07;;;;;;;0.65;0.45;;;19.70;48.70;;;;;;6171683;28;20042;-69
2022/04/15 07:26:08;;;;;;;0.30;0.30;;;19.70;48.00;;;;;;6171664;28;20031;-68
2022/04/15 07:29:08;;;;;;;0.77;0.40;;;19.70;48.00;;;;;;6169885;28;20065;-69
2022/04/15 07:32:09;;;;;;;0.40;0.30;;;19.70;48.10;;;;;;6148087;29;20035;-66
2022/04/15 07:35:10;;;;;;;0.35;0.35;;;19.70;48.00;;;;;;6147330;29;20619;-67
2022/04/15 07:38:10;;;;;;;0.68;0.40;;;19.70;48.10;;;;;;6148117;29;20027;-68
2022/04/15 07:41:11;;;;;;;0.38;0.38;;;19.70;48.00;;;;;;6147642;29;20490;-68
2022/04/15 07:44:12;;;;;;;0.38;0.38;;;19.70;48.00;;;;;;6141822;28;20044;-67
2022/04/15 07:47:12;;;;;;;0.35;0.35;;;19.70;48.00;;;;;;6123803;29;20035;-66
2022/04/15 07:50:13;;;;;;;0.40;0.25;;;19.70;48.00;;;;;;6123985;29;20070;-68
2022/04/15 07:53:13;;;;;;;0.45;0.45;;;19.70;48.00;;;;;;6134655;28;20031;-68
2022/04/15 07:56:14;;;;;;;0.60;0.50;;;19.70;48.00;;;;;;6170941;28;20442;-68
2022/04/15 07:59:14;;;;;;;0.32;0.30;;;19.70;48.00;;;;;;6171733;28;20066;-68
2022/04/15 08:02:17;;;;;;;0.47;0.40;;;19.70;48.00;;;;;;6171145;28;20122;-68
2022/04/15 08:05:17;;;;;;;0.50;0.40;;;19.70;48.00;;;;;;6171263;28;20027;-68
2022/04/15 08:08:18;;;;;;;1.33;0.70;;;19.70;48.00;;;;;;6171799;28;20034;-67
2022/04/15 08:11:18;;;;;;;0.52;0.40;;;19.70;48.00;;;;;;6171095;28;20050;-68
2022/04/15 08:14:19;;;;;;;0.55;0.50;;;19.70;48.00;;;;;;6171183;28;20026;-66
2022/04/15 08:17:19;;;;;;;0.43;0.38;;;19.70;48.00;;;;;;6171007;28;20508;-66
2022/04/15 08:20:20;;;;;;;0.80;0.40;;;19.70;48.00;;;;;;6171272;28;20106;-68
2022/04/15 08:23:21;;;;;;;0.60;0.35;;;19.70;48.00;;;;;;6186390;28;20034;-66
2022/04/15 08:26:21;;;;;;;0.50;0.30;;;19.70;48.00;;;;;;6171198;28;20015;-66
2022/04/15 08:29:22;;;;;;;0.88;0.43;;;19.70;48.00;;;;;;6171215;28;20031;-67
2022/04/15 08:32:22;;;;;;;0.38;0.38;;;19.70;48.00;;;;;;6151574;29;20028;-67
2022/04/15 08:35:23;;;;;;;0.30;0.30;;;19.70;48.00;;;;;;6151543;29;20390;-68
2022/04/15 08:38:23;;;;;;;0.50;0.50;;;19.70;48.00;;;;;;6155151;28;20477;-68
2022/04/15 08:41:28;;;;;;;0.30;0.30;;;19.70;48.00;;;;;;6175322;28;20088;-67
2022/04/15 08:44:31;;;;;;;0.63;0.47;;;19.70;48.00;;;;;;6148061;28;20057;-68
2022/04/15 08:47:32;;;;;;;0.30;0.30;;;19.70;48.00;;;;;;6127358;29;20384;-67
2022/04/15 08:50:33;;;;;;;0.60;0.50;;;19.70;48.00;;;;;;6127257;29;20501;-68
2022/04/15 08:53:35;;;;;;;1.00;0.55;;;19.70;48.00;;;;;;6143778;28;20019;-67
2022/04/15 08:56:36;;;;;;;0.70;0.32;;;19.70;48.00;;;;;;6175110;28;20045;-67
2022/04/15 08:59:40;;;;;;;0.30;0.30;;;19.70;48.00;;;;;;6175063;28;20130;-67
2022/04/15 09:02:40;;;;;;;0.68;0.38;;;19.70;48.00;;;;;;6174237;28;20077;-68
2022/04/15 09:05:41;;;;;;;0.40;0.40;;;19.70;48.70;;;;;;6174953;28;20023;-68
2022/04/15 09:09:03;;;;;;;0.50;0.40;;;19.70;48.00;;;;;;6174825;28;20054;-67
2022/04/15 09:12:15;;;;;;;0.30;0.30;;;19.70;48.00;;;;;;6174787;28;20027;-69
2022/04/15 09:15:16;;;;;;;0.40;0.40;;;19.70;48.00;;;;;;6174281;28;20061;-67
2022/04/15 09:18:31;;;;;;;0.50;0.40;;;19.70;48.00;;;;;;6174399;28;20031;-68
2022/04/15 09:21:31;;;;;;;0.45;0.45;;;19.70;48.00;;;;;;6174309;28;20441;-67
2022/04/15 09:24:33;;;;;;;1.20;0.50;;;19.70;48.00;;;;;;6174742;28;20039;-68
2022/04/15 09:27:37;;;;;;;0.30;0.30;;;19.70;48.00;;;;;;6173846;28;20042;-68
2022/04/15 09:30:41;;;;;;;0.40;0.40;;;19.70;48.00;;;;;;6161133;28;20367;-69
2022/04/15 09:33:59;;;;;;;0.60;0.40;;;19.70;48.00;;;;;;6149797;29;20027;-65
2022/04/15 09:37:05;;;;;;;0.40;0.35;;;19.70;48.00;;;;;;6150098;29;20505;-68
2022/04/15 09:40:09;;;;;;;0.50;0.50;;;19.70;48.00;;;;;;6150205;28;20500;-68
2022/04/15 09:43:10;;;;;;;0.50;0.40;;;19.70;48.00;;;;;;6146581;29;20506;-68
2022/04/15 09:46:10;;;;;;;0.52;0.50;;;19.70;48.00;;;;;;6125711;29;20038;-67
2022/04/15 09:49:12;;;;;;;0.47;0.40;;;19.70;48.00;;;;;;6126210;29;20031;-68
2022/04/15 09:52:24;;;;;;;0.30;0.30;;;19.70;48.00;;;;;;6126234;29;20016;-68
2022/04/15 09:55:26;;;;;;;0.68;0.57;;;19.70;48.00;;;;;;6170738;28;20110;-68
2022/04/15 09:58:31;;;;;;;0.35;0.35;;;19.70;48.00;;;;;;6173617;28;20113;-68
2022/04/15 10:01:40;;;;;;;0.40;0.40;;;19.70;48.00;;;;;;6173332;28;20034;-68
2022/04/15 10:04:42;;;;;;;0.50;0.40;;;19.70;48.00;;;;;;6173376;28;20110;-67
2022/04/15 10:07:43;;;;;;;1.10;0.70;;;19.70;48.00;;;;;;6173124;28;20114;-67
2022/04/15 10:10:43;;;;;;;0.60;0.60;;;19.70;48.10;;;;;;6173601;28;20027;-69
2022/04/15 10:13:45;;;;;;;0.40;0.40;;;19.70;48.00;;;;;;6172905;28;20022;-68
2022/04/15 10:16:45;;;;;;;0.60;0.50;;;19.70;48.00;;;;;;6173071;28;20027;-67
2022/04/15 10:19:46;;;;;;;0.75;0.50;;;19.70;48.00;;;;;;6171733;28;20506;-67
2022/04/15 10:22:47;;;;;;;0.60;0.50;;;19.70;48.00;;;;;;6172904;28;20035;-68
2022/04/15 10:25:49;;;;;;;0.75;0.40;;;19.70;48.00;;;;;;6172758;28;20532;-66
2022/04/15 10:28:53;;;;;;;0.70;0.47;;;19.70;48.00;;;;;;6173010;28;20034;-68
2022/04/15 10:31:54;;;;;;;0.60;0.45;;;19.70;48.00;;;;;;6149346;28;20098;-68
2022/04/15 10:34:54;;;;;;;0.63;0.50;;;19.70;48.10;;;;;;6148604;29;20037;-67
2022/04/15 10:38:03;;;;;;;0.80;0.50;;;19.70;48.00;;;;;;6148754;29;20126;-67
2022/04/15 10:41:15;;;;;;;0.75;0.40;;;19.70;48.00;;;;;;6148455;29;20102;-68
2022/04/15 10:44:30;;;;;;;0.73;0.52;;;19.70;48.00;;;;;;6146160;28;20137;-68
2022/04/15 10:47:31;;;;;;;0.30;0.30;;;19.70;48.10;;;;;;6148396;28;20497;-68
2022/04/15 10:50:34;;;;;;;0.40;0.40;;;19.70;48.00;;;;;;6148113;28;20034;-67
2022/04/15 10:53:34;;;;;;;0.32;0.32;;;19.70;48.00;;;;;;6156424;28;20031;-67
2022/04/15 10:57:01;;;;;;;0.50;0.50;;;19.70;48.00;;;;;;6171849;28;20142;-67
2022/04/15 11:03:36;;;;;;;0.40;0.40;;;19.70;48.00;;;;;;6171763;28;20039;-69
2022/04/15 11:06:36;;;;;;;0.52;0.40;;;19.70;48.00;;;;;;6172403;28;20053;-68
2022/04/15 11:09:37;;;;;;;0.35;0.35;;;19.70;48.00;;;;;;6171943;28;20030;-68
2022/04/15 11:12:45;;;;;;;0.75;0.55;;;19.70;48.00;;;;;;6171980;28;20060;-69
2022/04/15 11:15:58;;;;;;;0.40;0.40;;;19.70;48.00;;;;;;6171836;28;20019;-67
2022/04/15 11:19:00;;;;;;;0.40;0.40;;;19.70;48.00;;;;;;6172322;28;20023;-67
2022/04/15 11:22:00;;;;;;;0.50;0.47;;;19.70;48.00;;;;;;6172004;28;20035;-67
2022/04/15 11:25:01;;;;;;;0.57;0.50;;;19.70;48.00;;;;;;6172024;28;20409;-68
2022/04/15 11:28:04;;;;;;;0.52;0.43;;;19.70;48.00;;;;;;6171665;28;20039;-68
2022/04/15 11:31:19;;;;;;;0.30;0.30;;;19.70;48.00;;;;;;6169332;28;20430;-68
2022/04/15 11:34:20;;;;;;;0.50;0.50;;;19.70;48.00;;;;;;6171896;28;20023;-68
2022/04/15 11:37:21;;;;;;;0.95;0.40;;;19.70;48.00;;;;;;6171286;28;20113;-67
2022/04/15 11:40:22;;;;;;;0.90;0.60;;;19.70;48.00;;;;;;6172051;28;20482;-68
2022/04/15 11:43:25;;;;;;;0.40;0.40;;;19.70;48.00;;;;;;6161927;28;20122;-68
2022/04/15 11:46:38;;;;;;;0.45;0.32;;;19.70;48.00;;;;;;6124293;29;20035;-68
2022/04/15 11:49:44;;;;;;;1.10;0.50;;;19.70;48.00;;;;;;6123858;29;20027;-67
2022/04/15 11:52:45;;;;;;;0.38;0.30;;;19.70;48.00;;;;;;6126561;28;20313;-67
2022/04/15 11:56:02;;;;;;;0.40;0.30;;;19.70;48.00;;;;;;6171498;28;20061;-66
2022/04/15 11:59:04;;;;;;;0.40;0.30;;;19.70;48.00;;;;;;6171402;28;20059;-68
2022/04/15 12:02:06;;;;;;;0.68;0.40;;;19.70;48.00;;;;;;6171857;28;20094;-68
2022/04/15 12:05:08;;;;;;;0.47;0.47;;;19.70;48.00;;;;;;6176079;28;20057;-68
2022/04/15 12:08:08;;;;;;;0.35;0.35;;;19.70;48.00;;;;;;6175768;28;20548;-67
2022/04/15 12:11:09;;;;;;;0.85;0.50;;;19.70;48.00;;;;;;6175863;28;20053;-68
2022/04/15 12:14:10;;;;;;;0.40;0.40;;;19.70;48.00;;;;;;6175587;28;20030;-66
2022/04/15 12:17:14;;;;;;;0.20;0.20;;;19.70;48.00;;;;;;6174534;28;20065;-69
2022/04/15 12:20:16;;;;;;;0.32;0.32;;;19.70;48.00;;;;;;6175893;28;20027;-68
2022/04/15 12:23:16;;;;;;;0.30;0.30;;;19.70;48.00;;;;;;6175508;28;20486;-68
2022/04/15 12:26:17;;;;;;;0.50;0.50;;;19.70;48.00;;;;;;6174256;28;20023;-69
2022/04/15 12:32:39;;;;;;;0.68;0.38;;;19.70;48.00;;;;;;6173051;28;20113;-68
2022/04/15 12:36:00;;;;;;;0.30;0.30;;;19.70;48.00;;;;;;6174934;28;20025;-68
2022/04/15 12:39:04;;;;;;;0.40;0.40;;;19.70;48.00;;;;;;6175972;28;20670;-68
2022/04/15 12:42:05;;;;;;;0.28;0.28;;;19.70;48.00;;;;;;6175605;28;20035;-68
2022/04/15 12:45:07;;;;;;;0.40;0.32;;;19.70;48.00;;;;;;6138482;28;20118;-67
2022/04/15 12:48:08;;;;;;;0.30;0.30;;;19.70;48.00;;;;;;6127355;29;20588;-67
2022/04/15 12:51:08;;;;;;;0.35;0.35;;;19.70;48.00;;;;;;6129710;28;20024;-68
2022/04/15 12:54:09;;;;;;;0.40;0.30;;;19.70;48.00;;;;;;6163546;28;20023;-69
2022/04/15 12:57:17;;;;;;;0.40;0.40;;;19.70;48.00;;;;;;6175633;28;20089;-67
2022/04/15 13:00:17;;;;;;;0.30;0.30;;;19.70;48.00;;;;;;6174809;28;20061;-68
2022/04/15 13:03:20;;;;;;;0.50;0.40;;;19.70;48.00;;;;;;6174891;28;20422;-67
2022/04/15 13:06:23;;;;;;;0.30;0.30;;;19.70;48.00;;;;;;6174539;28;20114;-67
2022/04/15 13:09:23;;;;;;;0.30;0.30;;;19.70;48.00;;;;;;6175424;28;20477;-68
2022/04/15 13:12:24;;;;;;;0.32;0.32;;;19.70;48.00;;;;;;6174403;28;20029;-67
2022/04/15 13:15:24;;;;;;;0.30;0.30;;;19.70;48.00;;;;;;6173902;28;20367;-67
2022/04/15 13:18:25;;;;;;;0.40;0.40;;;19.70;48.00;;;;;;6174697;28;20045;-68
2022/04/15 13:21:26;;;;;;;0.57;0.43;;;19.70;48.00;;;;;;6171267;28;20038;-68
2022/04/15 13:24:27;;;;;;;2.15;0.40;;;19.70;48.00;;;;;;6150161;29;20023;-68
2022/04/15 13:27:27;;;;;;;0.20;0.20;;;19.70;48.00;;;;;;6154120;28;20081;-68
2022/04/15 13:30:28;;;;;;;0.68;0.40;;;19.70;48.00;;;;;;6162279;28;20029;-66
2022/04/15 13:33:28;;;;;;;0.30;0.28;;;19.70;48.00;;;;;;6150213;29;20035;-68
2022/04/15 13:36:29;;;;;;;0.70;0.32;;;19.70;48.00;;;;;;6150105;29;20493;-67
2022/04/15 13:39:31;;;;;;;0.20;0.20;;;19.70;48.00;;;;;;6150170;29;20031;-67
2022/04/15 13:42:32;;;;;;;0.30;0.30;;;19.70;48.00;;;;;;6150212;29;20035;-67
2022/04/15 13:45:33;;;;;;;0.40;0.40;;;19.70;48.00;;;;;;6127974;29;20498;-69
2022/04/15 13:48:33;;;;;;;0.32;0.30;;;19.70;48.00;;;;;;6125880;29;20055;-68
2022/04/15 13:51:34;;;;;;;0.70;0.50;;;19.70;48.00;;;;;;6126259;29;20031;-68
2022/04/15 13:57:53;;;;;;;0.30;0.30;;;19.70;48.00;;;;;;6173601;28;20458;-66
2022/04/15 14:00:54;;;;;;;0.20;0.20;;;19.70;48.00;;;;;;6173393;28;20153;-68
2022/04/15 14:03:55;;;;;;;0.20;0.20;;;19.70;48.00;;;;;;6173102;28;20046;-67
2022/04/15 14:06:56;;;;;;;0.30;0.30;;;19.70;48.00;;;;;;6173477;28;20477;-68
2022/04/15 14:09:57;;;;;;;0.20;0.20;;;19.70;48.10;;;;;;6173302;28;20026;-67
2022/04/15 14:12:59;;;;;;;0.50;0.30;;;19.70;48.00;;;;;;6173192;28;20469;-67
2022/04/15 14:16:00;;;;;;;0.60;0.35;;;19.70;48.00;;;;;;6172543;28;20106;-68
2022/04/15 14:19:02;;;;;;;0.50;0.30;;;19.70;48.10;;;;;;6173330;28;20499;-68
2022/04/15 14:22:02;;;;;;;0.30;0.30;;;19.70;48.00;;;;;;6173095;28;20043;-69
2022/04/15 14:25:03;;;;;;;0.32;0.32;;;19.70;48.00;;;;;;6172595;28;20085;-67
2022/04/15 14:28:04;;;;;;;0.30;0.30;;;19.70;48.00;;;;;;6172900;28;20085;-67
2022/04/15 14:31:05;;;;;;;0.20;0.20;;;19.70;48.00;;;;;;6155961;28;20034;-67
2022/04/15 14:34:06;;;;;;;0.32;0.30;;;19.70;48.00;;;;;;6149123;29;20031;-68
2022/04/15 14:37:06;;;;;;;0.30;0.30;;;19.70;48.00;;;;;;6149099;29;20374;-68
2022/04/15 14:40:08;;;;;;;0.28;0.28;;;19.70;48.70;;;;;;6148168;29;20103;-68
2022/04/15 14:43:08;;;;;;;0.40;0.40;;;19.70;48.00;;;;;;6146275;29;20106;-68
2022/04/15 14:46:10;;;;;;;0.30;0.30;;;19.70;48.00;;;;;;6124692;29;20501;-68
2022/04/15 14:49:11;;;;;;;0.20;0.20;;;19.70;48.00;;;;;;6125045;29;20028;-67
2022/04/15 14:52:11;;;;;;;0.25;0.22;;;19.70;48.00;;;;;;6124841;29;20027;-68
2022/04/15 14:55:12;;;;;;;0.30;0.30;;;19.70;48.00;;;;;;6165810;28;20030;-69
2022/04/15 14:58:13;;;;;;;0.50;0.40;;;19.70;48.00;;;;;;6172381;28;20050;-67
2022/04/15 15:01:14;;;;;;;0.28;0.20;;;19.70;48.00;;;;;;6172199;28;20031;-68
2022/04/15 15:04:15;;;;;;;0.20;0.20;;;19.70;48.00;;;;;;6172417;28;20050;-68
2022/04/15 15:07:15;;;;;;;0.20;0.20;;;19.70;48.00;;;;;;6171910;28;20022;-68
2022/04/15 15:10:16;;;;;;;0.40;0.30;;;19.70;48.00;;;;;;6172296;28;20019;-68
2022/04/15 15:13:17;;;;;;;0.50;0.40;;;19.70;48.00;;;;;;6172383;28;20051;-66
2022/04/15 15:16:17;;;;;;;0.30;0.30;;;19.70;48.00;;;;;;6172103;28;20544;-67
2022/04/15 15:19:18;;;;;;;0.40;0.40;;;19.70;48.00;;;;;;6172010;28;20034;-66
2022/04/15 15:22:18;;;;;;;0.30;0.30;;;19.70;48.00;;;;;;6172412;28;20397;-69
2022/04/15 15:31:57;;;;;;;0.57;0.45;;;19.70;48.00;;;;;;6147693;29;20027;-67
2022/04/15 15:34:58;;;;;;;0.30;0.30;;;19.70;48.00;;;;;;6147786;29;20106;-68
2022/04/15 15:37:58;;;;;;;0.30;0.30;;;19.70;48.00;;;;;;6151294;28;20035;-67
2022/04/15 15:40:59;;;;;;;0.40;0.40;;;19.70;48.00;;;;;;6152954;29;20098;-67
2022/04/15 15:43:59;;;;;;;0.40;0.30;;;19.70;48.00;;;;;;6142833;29;20043;-68
2022/04/15 15:47:00;;;;;;;0.32;0.30;;;19.70;48.00;;;;;;6144349;28;20042;-67
2022/04/15 15:50:01;;;;;;;0.30;0.30;;;19.70;48.00;;;;;;6153187;28;20515;-68
2022/04/15 15:53:01;;;;;;;0.55;0.40;;;19.70;48.00;;;;;;6155672;28;20046;-68
2022/04/15 15:56:02;;;;;;;1.20;0.40;;;19.70;48.00;;;;;;6176333;28;20401;-69
2022/04/15 15:59:02;;;;;;;0.30;0.30;;;19.70;48.00;;;;;;6176313;28;20057;-68
2022/04/15 16:02:04;;;;;;;0.50;0.50;;;19.70;48.70;;;;;;6176173;28;20378;-68
2022/04/15 16:05:05;;;;;;;0.40;0.35;;;19.70;48.00;;;;;;6176052;28;20026;-68